sensor_id;sensor_type;location;lat;lon;timestamp;pressure;altitude;pressure_sealevel;temperature;humidity
71344;BME280;59146;43.850;25.948;2023-04-15T00:00:03;100248.47;;;13.51;60.88
71344;BME280;59146;43.850;25.948;2023-04-15T00:02:29;100233.75;;;13.26;61.61
71344;BME280;59146;43.850;25.948;2023-04-15T00:04:54;100267.22;;;13.57;61.69
71344;BME280;59146;43.850;25.948;2023-04-15T00:07:19;100273.44;;;13.57;61.51
71344;BME280;59146;43.850;25.948;2023-04-15T00:09:45;100248.69;;;13.37;61.84
71344;BME280;59146;43.850;25.948;2023-04-15T00:12:11;100234.50;;;13.39;61.07
71344;BME280;59146;43.850;25.948;2023-04-15T00:14:36;100227.84;;;13.35;60.97
71344;BME280;59146;43.850;25.948;2023-04-15T00:17:02;100301.84;;;13.74;61.35
71344;BME280;59146;43.850;25.948;2023-04-15T00:19:28;100202.53;;;13.23;61.38
71344;BME280;59146;43.850;25.948;2023-04-15T00:21:54;100212.19;;;13.23;61.63
71344;BME280;59146;43.850;25.948;2023-04-15T00:24:19;100208.69;;;13.11;61.90
71344;BME280;59146;43.850;25.948;2023-04-15T00:26:45;100292.25;;;13.62;63.44
71344;BME280;59146;43.850;25.948;2023-04-15T00:29:10;100245.56;;;13.21;66.71
71344;BME280;59146;43.850;25.948;2023-04-15T00:31:35;100258.06;;;12.94;65.65
71344;BME280;59146;43.850;25.948;2023-04-15T00:34:01;100287.56;;;12.85;67.52
71344;BME280;59146;43.850;25.948;2023-04-15T00:36:27;100315.19;;;13.01;68.77
71344;BME280;59146;43.850;25.948;2023-04-15T00:38:53;100260.81;;;12.45;68.77
71344;BME280;59146;43.850;25.948;2023-04-15T00:41:18;100340.19;;;12.94;68.77
71344;BME280;59146;43.850;25.948;2023-04-15T00:43:45;100233.03;;;12.19;68.92
71344;BME280;59146;43.850;25.948;2023-04-15T00:46:13;100312.28;;;12.69;69.11
71344;BME280;59146;43.850;25.948;2023-04-15T00:48:40;100317.63;;;12.68;68.92
71344;BME280;59146;43.850;25.948;2023-04-15T00:51:06;100324.41;;;12.83;68.68
71344;BME280;59146;43.850;25.948;2023-04-15T00:53:33;100320.59;;;12.87;68.33
71344;BME280;59146;43.850;25.948;2023-04-15T00:55:59;100321.31;;;12.89;68.28
71344;BME280;59146;43.850;25.948;2023-04-15T00:58:25;100347.38;;;13.03;68.19
71344;BME280;59146;43.850;25.948;2023-04-15T01:00:52;100310.00;;;12.89;67.52
71344;BME280;59146;43.850;25.948;2023-04-15T01:03:19;100289.59;;;12.81;67.74
71344;BME280;59146;43.850;25.948;2023-04-15T01:05:45;100234.53;;;12.34;68.23
71344;BME280;59146;43.850;25.948;2023-04-15T01:08:10;100293.13;;;12.69;68.99
71344;BME280;59146;43.850;25.948;2023-04-15T01:10:36;100248.88;;;12.41;69.26
71344;BME280;59146;43.850;25.948;2023-04-15T01:13:02;100332.03;;;12.86;68.55
71344;BME280;59146;43.850;25.948;2023-04-15T01:15:28;100292.72;;;12.62;69.10
71344;BME280;59146;43.850;25.948;2023-04-15T01:17:53;100317.31;;;12.72;70.77
71344;BME280;59146;43.850;25.948;2023-04-15T01:20:19;100272.84;;;12.11;72.22
71344;BME280;59146;43.850;25.948;2023-04-15T01:22:45;100286.88;;;12.23;72.22
71344;BME280;59146;43.850;25.948;2023-04-15T01:25:11;100333.13;;;12.35;72.51
71344;BME280;59146;43.850;25.948;2023-04-15T01:27:40;100361.41;;;12.42;73.24
71344;BME280;59146;43.850;25.948;2023-04-15T01:30:07;100350.13;;;12.29;73.49
71344;BME280;59146;43.850;25.948;2023-04-15T01:32:33;100367.91;;;12.37;73.32
71344;BME280;59146;43.850;25.948;2023-04-15T01:34:58;100258.22;;;11.83;73.07
71344;BME280;59146;43.850;25.948;2023-04-15T01:37:24;100344.66;;;12.32;73.85
71344;BME280;59146;43.850;25.948;2023-04-15T01:39:50;100328.97;;;12.20;75.31
71344;BME280;59146;43.850;25.948;2023-04-15T01:42:16;100349.28;;;12.29;75.20
71344;BME280;59146;43.850;25.948;2023-04-15T01:44:41;100324.34;;;12.11;75.37
71344;BME280;59146;43.850;25.948;2023-04-15T01:47:06;100380.56;;;12.43;75.24
71344;BME280;59146;43.850;25.948;2023-04-15T01:49:32;100361.81;;;12.36;75.19
71344;BME280;59146;43.850;25.948;2023-04-15T01:51:58;100303.94;;;12.03;73.67
71344;BME280;59146;43.850;25.948;2023-04-15T01:54:24;100344.03;;;12.29;73.42
71344;BME280;59146;43.850;25.948;2023-04-15T01:56:50;100393.25;;;12.49;73.43
71344;BME280;59146;43.850;25.948;2023-04-15T01:59:16;100365.59;;;12.45;73.43
71344;BME280;59146;43.850;25.948;2023-04-15T02:01:42;100287.09;;;12.07;73.40
71344;BME280;59146;43.850;25.948;2023-04-15T02:04:07;100303.19;;;12.26;73.15
71344;BME280;59146;43.850;25.948;2023-04-15T02:06:40;100351.28;;;12.61;72.09
71344;BME280;59146;43.850;25.948;2023-04-15T02:09:06;100298.34;;;12.33;71.80
71344;BME280;59146;43.850;25.948;2023-04-15T02:11:31;100334.84;;;12.59;71.65
71344;BME280;59146;43.850;25.948;2023-04-15T02:13:57;100352.09;;;12.74;72.24
71344;BME280;59146;43.850;25.948;2023-04-15T02:16:25;100324.53;;;12.45;72.71
71344;BME280;59146;43.850;25.948;2023-04-15T02:18:50;100260.59;;;12.12;72.68
71344;BME280;59146;43.850;25.948;2023-04-15T02:21:16;100311.75;;;12.41;72.50
71344;BME280;59146;43.850;25.948;2023-04-15T02:23:43;100343.41;;;12.38;72.82
71344;BME280;59146;43.850;25.948;2023-04-15T02:26:08;100331.88;;;12.28;73.03
71344;BME280;59146;43.850;25.948;2023-04-15T02:28:34;100349.47;;;12.38;72.91
71344;BME280;59146;43.850;25.948;2023-04-15T02:31:00;100323.22;;;12.15;72.75
71344;BME280;59146;43.850;25.948;2023-04-15T02:33:26;100312.53;;;12.05;72.52
71344;BME280;59146;43.850;25.948;2023-04-15T02:35:51;100328.56;;;11.88;73.71
71344;BME280;59146;43.850;25.948;2023-04-15T02:38:17;100349.19;;;12.05;73.89
71344;BME280;59146;43.850;25.948;2023-04-15T02:40:43;100373.38;;;12.09;74.23
71344;BME280;59146;43.850;25.948;2023-04-15T02:43:08;100361.66;;;12.02;74.61
71344;BME280;59146;43.850;25.948;2023-04-15T02:45:33;100286.81;;;11.86;74.86
71344;BME280;59146;43.850;25.948;2023-04-15T02:47:59;100230.91;;;11.62;74.56
71344;BME280;59146;43.850;25.948;2023-04-15T02:50:30;100332.44;;;12.08;75.15
71344;BME280;59146;43.850;25.948;2023-04-15T02:52:55;100296.97;;;11.78;75.19
71344;BME280;59146;43.850;25.948;2023-04-15T02:55:21;100362.28;;;12.05;75.38
71344;BME280;59146;43.850;25.948;2023-04-15T02:57:46;100317.88;;;11.66;75.48
71344;BME280;59146;43.850;25.948;2023-04-15T03:00:12;100354.53;;;11.78;75.54
71344;BME280;59146;43.850;25.948;2023-04-15T03:02:38;100384.06;;;11.93;76.09
71344;BME280;59146;43.850;25.948;2023-04-15T03:05:05;100283.72;;;11.30;76.12
71344;BME280;59146;43.850;25.948;2023-04-15T03:07:31;100333.00;;;11.48;77.15
71344;BME280;59146;43.850;25.948;2023-04-15T03:09:56;100385.63;;;11.70;77.86
71344;BME280;59146;43.850;25.948;2023-04-15T03:12:22;100294.47;;;11.25;77.67
71344;BME280;59146;43.850;25.948;2023-04-15T03:14:47;100313.03;;;11.47;77.54
71344;BME280;59146;43.850;25.948;2023-04-15T03:17:13;100259.41;;;11.15;77.08
71344;BME280;59146;43.850;25.948;2023-04-15T03:19:38;100280.56;;;11.25;77.25
71344;BME280;59146;43.850;25.948;2023-04-15T03:22:03;100146.16;;;10.37;76.57
71344;BME280;59146;43.850;25.948;2023-04-15T03:24:29;100380.38;;;11.70;76.75
71344;BME280;59146;43.850;25.948;2023-04-15T03:26:57;100381.53;;;11.66;76.61
71344;BME280;59146;43.850;25.948;2023-04-15T03:29:23;100310.16;;;11.25;76.48
71344;BME280;59146;43.850;25.948;2023-04-15T03:31:49;100340.34;;;11.43;76.71
71344;BME280;59146;43.850;25.948;2023-04-15T03:34:14;100366.84;;;11.64;76.86
71344;BME280;59146;43.850;25.948;2023-04-15T03:36:40;100299.09;;;11.34;76.43
71344;BME280;59146;43.850;25.948;2023-04-15T03:39:05;100365.84;;;11.79;75.02
71344;BME280;59146;43.850;25.948;2023-04-15T03:41:31;100263.91;;;11.13;75.00
71344;BME280;59146;43.850;25.948;2023-04-15T03:43:57;100379.34;;;11.85;74.96
71344;BME280;59146;43.850;25.948;2023-04-15T03:46:22;100420.09;;;12.15;74.66
71344;BME280;59146;43.850;25.948;2023-04-15T03:48:48;100412.44;;;12.12;74.65
71344;BME280;59146;43.850;25.948;2023-04-15T03:51:13;100394.44;;;12.20;74.21
71344;BME280;59146;43.850;25.948;2023-04-15T03:53:39;100382.59;;;12.14;74.42
71344;BME280;59146;43.850;25.948;2023-04-15T03:56:04;100423.75;;;12.37;76.21
71344;BME280;59146;43.850;25.948;2023-04-15T03:58:30;100415.38;;;12.20;76.79
71344;BME280;59146;43.850;25.948;2023-04-15T04:00:56;100368.25;;;11.94;77.21
71344;BME280;59146;43.850;25.948;2023-04-15T04:03:21;100426.56;;;12.34;77.66
71344;BME280;59146;43.850;25.948;2023-04-15T04:05:46;100394.13;;;12.24;77.37
71344;BME280;59146;43.850;25.948;2023-04-15T04:08:12;100352.66;;;12.06;75.85
71344;BME280;59146;43.850;25.948;2023-04-15T04:10:38;100397.66;;;12.36;75.09
71344;BME280;59146;43.850;25.948;2023-04-15T04:13:04;100421.13;;;12.50;75.43
71344;BME280;59146;43.850;25.948;2023-04-15T04:15:29;100399.97;;;12.40;74.29
71344;BME280;59146;43.850;25.948;2023-04-15T04:17:55;100434.72;;;12.55;74.50
71344;BME280;59146;43.850;25.948;2023-04-15T04:20:20;100429.41;;;12.44;75.02
71344;BME280;59146;43.850;25.948;2023-04-15T04:22:45;100375.59;;;12.15;76.17
71344;BME280;59146;43.850;25.948;2023-04-15T04:25:11;100338.09;;;11.89;77.22
71344;BME280;59146;43.850;25.948;2023-04-15T04:27:36;100354.13;;;11.97;77.21
71344;BME280;59146;43.850;25.948;2023-04-15T04:30:03;100314.97;;;11.83;76.49
71344;BME280;59146;43.850;25.948;2023-04-15T04:32:29;100386.78;;;12.17;76.02
71344;BME280;59146;43.850;25.948;2023-04-15T04:34:54;100456.75;;;12.65;76.11
71344;BME280;59146;43.850;25.948;2023-04-15T04:37:20;100362.69;;;12.12;76.49
71344;BME280;59146;43.850;25.948;2023-04-15T04:39:45;100329.72;;;11.71;77.05
71344;BME280;59146;43.850;25.948;2023-04-15T04:42:10;100380.81;;;11.89;77.06
71344;BME280;59146;43.850;25.948;2023-04-15T04:44:36;100408.03;;;12.00;77.28
71344;BME280;59146;43.850;25.948;2023-04-15T04:47:02;100440.09;;;12.16;77.49
71344;BME280;59146;43.850;25.948;2023-04-15T04:49:27;100397.69;;;11.98;77.63
71344;BME280;59146;43.850;25.948;2023-04-15T04:51:53;100437.56;;;12.02;79.02
71344;BME280;59146;43.850;25.948;2023-04-15T04:54:18;100471.31;;;12.19;79.01
71344;BME280;59146;43.850;25.948;2023-04-15T04:56:44;100469.31;;;12.10;79.08
71344;BME280;59146;43.850;25.948;2023-04-15T04:59:09;100466.88;;;12.07;79.41
71344;BME280;59146;43.850;25.948;2023-04-15T05:01:35;100416.19;;;11.95;79.24
71344;BME280;59146;43.850;25.948;2023-04-15T05:04:00;100476.03;;;12.39;77.55
71344;BME280;59146;43.850;25.948;2023-04-15T05:06:26;100437.69;;;12.38;76.53
71344;BME280;59146;43.850;25.948;2023-04-15T05:08:51;100463.97;;;12.61;75.77
71344;BME280;59146;43.850;25.948;2023-04-15T05:11:17;100463.91;;;12.50;75.60
71344;BME280;59146;43.850;25.948;2023-04-15T05:13:42;100486.81;;;12.72;74.81
71344;BME280;59146;43.850;25.948;2023-04-15T05:16:08;100472.25;;;12.68;74.45
71344;BME280;59146;43.850;25.948;2023-04-15T05:18:33;100345.94;;;11.76;74.37
71344;BME280;59146;43.850;25.948;2023-04-15T05:20:59;100444.59;;;12.26;74.43
71344;BME280;59146;43.850;25.948;2023-04-15T05:23:25;100430.56;;;12.02;74.94
71344;BME280;59146;43.850;25.948;2023-04-15T05:25:50;100455.69;;;12.05;75.24
71344;BME280;59146;43.850;25.948;2023-04-15T05:28:16;100498.31;;;12.07;75.51
71344;BME280;59146;43.850;25.948;2023-04-15T05:30:41;100489.13;;;11.74;77.17
71344;BME280;59146;43.850;25.948;2023-04-15T05:33:07;100440.84;;;11.39;77.13
71344;BME280;59146;43.850;25.948;2023-04-15T05:35:33;100446.81;;;11.41;78.30
71344;BME280;59146;43.850;25.948;2023-04-15T05:37:58;100490.66;;;11.64;77.95
71344;BME280;59146;43.850;25.948;2023-04-15T05:40:24;100460.06;;;11.65;77.73
71344;BME280;59146;43.850;25.948;2023-04-15T05:42:49;100430.22;;;11.55;77.57
71344;BME280;59146;43.850;25.948;2023-04-15T05:45:15;100488.09;;;11.77;78.01
71344;BME280;59146;43.850;25.948;2023-04-15T05:47:40;100487.47;;;11.86;77.67
71344;BME280;59146;43.850;25.948;2023-04-15T05:50:06;100447.47;;;11.71;77.19
71344;BME280;59146;43.850;25.948;2023-04-15T05:52:32;100474.75;;;12.07;76.58
71344;BME280;59146;43.850;25.948;2023-04-15T05:54:57;100461.34;;;12.61;75.58
71344;BME280;59146;43.850;25.948;2023-04-15T05:57:23;100487.81;;;13.43;73.06
71344;BME280;59146;43.850;25.948;2023-04-15T05:59:48;100395.28;;;12.82;71.56
71344;BME280;59146;43.850;25.948;2023-04-15T06:02:16;100498.56;;;13.40;71.33
71344;BME280;59146;43.850;25.948;2023-04-15T06:04:41;100420.09;;;12.89;71.00
71344;BME280;59146;43.850;25.948;2023-04-15T06:07:07;100412.63;;;12.95;69.95
71344;BME280;59146;43.850;25.948;2023-04-15T06:09:33;100435.13;;;13.46;69.12
71344;BME280;59146;43.850;25.948;2023-04-15T06:11:59;100450.19;;;13.55;68.79
71344;BME280;59146;43.850;25.948;2023-04-15T06:14:25;100511.47;;;14.02;69.10
71344;BME280;59146;43.850;25.948;2023-04-15T06:16:51;100447.84;;;13.98;67.46
71344;BME280;59146;43.850;25.948;2023-04-15T06:19:16;100499.91;;;14.04;67.02
71344;BME280;59146;43.850;25.948;2023-04-15T06:21:43;100529.81;;;13.67;68.33
71344;BME280;59146;43.850;25.948;2023-04-15T06:24:08;100390.81;;;12.95;68.43
71344;BME280;59146;43.850;25.948;2023-04-15T06:26:34;100478.84;;;13.59;68.83
71344;BME280;59146;43.850;25.948;2023-04-15T06:28:59;100479.13;;;14.01;67.66
71344;BME280;59146;43.850;25.948;2023-04-15T06:31:25;100523.72;;;14.82;65.72
71344;BME280;59146;43.850;25.948;2023-04-15T06:33:50;100530.22;;;15.65;63.89
71344;BME280;59146;43.850;25.948;2023-04-15T06:36:16;100496.34;;;15.29;62.87
71344;BME280;59146;43.850;25.948;2023-04-15T06:38:42;100501.59;;;15.06;64.26
71344;BME280;59146;43.850;25.948;2023-04-15T06:41:07;100481.41;;;14.96;64.76
71344;BME280;59146;43.850;25.948;2023-04-15T06:43:33;100530.78;;;15.14;65.56
71344;BME280;59146;43.850;25.948;2023-04-15T06:45:59;100522.88;;;15.26;65.18
71344;BME280;59146;43.850;25.948;2023-04-15T06:48:24;100504.56;;;15.35;65.08
71344;BME280;59146;43.850;25.948;2023-04-15T06:50:50;100503.53;;;15.69;64.24
71344;BME280;59146;43.850;25.948;2023-04-15T06:53:16;100496.66;;;16.10;63.53
71344;BME280;59146;43.850;25.948;2023-04-15T06:55:41;100484.75;;;16.15;62.54
71344;BME280;59146;43.850;25.948;2023-04-15T06:58:07;100460.78;;;16.59;61.06
71344;BME280;59146;43.850;25.948;2023-04-15T07:00:32;100507.66;;;17.85;58.31
71344;BME280;59146;43.850;25.948;2023-04-15T07:02:59;100462.31;;;18.18;54.96
71344;BME280;59146;43.850;25.948;2023-04-15T07:05:28;100527.25;;;18.59;54.58
71344;BME280;59146;43.850;25.948;2023-04-15T07:07:53;100464.81;;;18.19;54.81
71344;BME280;59146;43.850;25.948;2023-04-15T07:10:19;100490.72;;;18.72;54.78
71344;BME280;59146;43.850;25.948;2023-04-15T07:12:45;100500.53;;;18.52;53.22
71344;BME280;59146;43.850;25.948;2023-04-15T07:15:10;100531.41;;;18.52;53.76
71344;BME280;59146;43.850;25.948;2023-04-15T07:17:36;100447.75;;;17.95;55.42
71344;BME280;59146;43.850;25.948;2023-04-15T07:20:02;100534.47;;;18.57;54.67
71344;BME280;59146;43.850;25.948;2023-04-15T07:22:29;100523.63;;;18.41;54.93
71344;BME280;59146;43.850;25.948;2023-04-15T07:24:54;100443.44;;;17.75;53.92
71344;BME280;59146;43.850;25.948;2023-04-15T07:27:20;100536.75;;;18.33;52.71
71344;BME280;59146;43.850;25.948;2023-04-15T07:29:45;100453.31;;;17.63;52.59
71344;BME280;59146;43.850;25.948;2023-04-15T07:32:10;100565.13;;;18.50;52.93
71344;BME280;59146;43.850;25.948;2023-04-15T07:34:36;100551.47;;;18.54;53.40
71344;BME280;59146;43.850;25.948;2023-04-15T07:37:02;100601.81;;;18.91;52.72
71344;BME280;59146;43.850;25.948;2023-04-15T07:39:27;100528.38;;;18.47;53.08
71344;BME280;59146;43.850;25.948;2023-04-15T07:41:54;100562.63;;;18.19;53.82
71344;BME280;59146;43.850;25.948;2023-04-15T07:44:20;100568.75;;;18.20;53.41
71344;BME280;59146;43.850;25.948;2023-04-15T07:46:46;100434.84;;;17.14;54.01
71344;BME280;59146;43.850;25.948;2023-04-15T07:49:11;100609.38;;;18.48;53.92
71344;BME280;59146;43.850;25.948;2023-04-15T07:51:37;100545.63;;;18.32;51.60
71344;BME280;59146;43.850;25.948;2023-04-15T07:54:03;100560.13;;;18.47;51.42
71344;BME280;59146;43.850;25.948;2023-04-15T07:56:28;100563.59;;;18.57;51.40
71344;BME280;59146;43.850;25.948;2023-04-15T07:58:54;100543.91;;;18.69;50.75
71344;BME280;59146;43.850;25.948;2023-04-15T08:01:19;100609.25;;;18.59;52.17
71344;BME280;59146;43.850;25.948;2023-04-15T08:03:45;100616.88;;;18.04;53.71
71344;BME280;59146;43.850;25.948;2023-04-15T08:06:11;100530.84;;;17.62;54.15
71344;BME280;59146;43.850;25.948;2023-04-15T08:08:37;100585.72;;;17.98;53.74
71344;BME280;59146;43.850;25.948;2023-04-15T08:11:02;100584.53;;;17.72;54.91
71344;BME280;59146;43.850;25.948;2023-04-15T08:13:29;100657.47;;;17.94;55.32
71344;BME280;59146;43.850;25.948;2023-04-15T08:18:38;100652.56;;;17.80;54.51
71344;BME280;59146;43.850;25.948;2023-04-15T08:21:04;100628.25;;;17.95;54.67
71344;BME280;59146;43.850;25.948;2023-04-15T08:23:30;100658.25;;;17.75;55.75
71344;BME280;59146;43.850;25.948;2023-04-15T08:25:56;100623.75;;;17.67;54.65
71344;BME280;59146;43.850;25.948;2023-04-15T08:28:21;100607.81;;;17.48;52.59
71344;BME280;59146;43.850;25.948;2023-04-15T08:30:47;100655.47;;;17.77;52.65
71344;BME280;59146;43.850;25.948;2023-04-15T08:33:13;100660.63;;;17.78;53.07
71344;BME280;59146;43.850;25.948;2023-04-15T08:35:38;100586.69;;;17.48;53.27
71344;BME280;59146;43.850;25.948;2023-04-15T08:38:04;100646.53;;;17.59;54.88
71344;BME280;59146;43.850;25.948;2023-04-15T08:40:40;100632.53;;;17.47;55.94
71344;BME280;59146;43.850;25.948;2023-04-15T08:43:09;100634.09;;;17.50;55.42
71344;BME280;59146;43.850;25.948;2023-04-15T08:45:37;100647.06;;;17.62;55.67
71344;BME280;59146;43.850;25.948;2023-04-15T08:48:04;100642.63;;;17.53;55.07
71344;BME280;59146;43.850;25.948;2023-04-15T08:50:31;100582.25;;;17.48;54.01
71344;BME280;59146;43.850;25.948;2023-04-15T08:53:00;100648.84;;;17.92;54.66
71344;BME280;59146;43.850;25.948;2023-04-15T08:55:29;100597.78;;;17.91;54.42
71344;BME280;59146;43.850;25.948;2023-04-15T08:57:58;100612.69;;;17.92;53.37
71344;BME280;59146;43.850;25.948;2023-04-15T09:00:24;100633.16;;;18.09;53.73
71344;BME280;59146;43.850;25.948;2023-04-15T09:02:50;100637.47;;;18.10;54.37
71344;BME280;59146;43.850;25.948;2023-04-15T09:05:23;100627.19;;;18.07;52.44
71344;BME280;59146;43.850;25.948;2023-04-15T09:07:50;100603.22;;;17.80;53.37
71344;BME280;59146;43.850;25.948;2023-04-15T09:10:16;100665.31;;;18.34;52.64
71344;BME280;59146;43.850;25.948;2023-04-15T09:12:42;100622.16;;;18.14;52.59
71344;BME280;59146;43.850;25.948;2023-04-15T09:15:10;100528.06;;;17.64;53.46
71344;BME280;59146;43.850;25.948;2023-04-15T09:17:41;100571.81;;;18.15;53.11
71344;BME280;59146;43.850;25.948;2023-04-15T09:20:08;100651.69;;;18.67;52.47
71344;BME280;59146;43.850;25.948;2023-04-15T09:22:34;100643.63;;;18.59;52.59
71344;BME280;59146;43.850;25.948;2023-04-15T09:25:00;100583.47;;;18.22;53.00
71344;BME280;59146;43.850;25.948;2023-04-15T09:27:25;100611.03;;;18.58;52.40
71344;BME280;59146;43.850;25.948;2023-04-15T09:29:52;100637.88;;;19.01;51.55
71344;BME280;59146;43.850;25.948;2023-04-15T09:32:18;100595.28;;;18.76;47.03
71344;BME280;59146;43.850;25.948;2023-04-15T09:34:45;100571.38;;;18.30;48.16
71344;BME280;59146;43.850;25.948;2023-04-15T09:37:11;100617.47;;;18.46;48.64
71344;BME280;59146;43.850;25.948;2023-04-15T09:39:45;100569.88;;;18.56;46.57
71344;BME280;59146;43.850;25.948;2023-04-15T09:42:11;100590.13;;;18.84;47.95
71344;BME280;59146;43.850;25.948;2023-04-15T09:44:36;100631.69;;;19.11;48.63
71344;BME280;59146;43.850;25.948;2023-04-15T09:47:02;100622.69;;;18.94;47.08
71344;BME280;59146;43.850;25.948;2023-04-15T09:49:27;100583.56;;;18.88;45.18
71344;BME280;59146;43.850;25.948;2023-04-15T09:52:00;100570.88;;;19.28;42.98
71344;BME280;59146;43.850;25.948;2023-04-15T09:54:35;100598.66;;;19.78;43.95
71344;BME280;59146;43.850;25.948;2023-04-15T09:57:08;100608.94;;;19.64;46.88
71344;BME280;59146;43.850;25.948;2023-04-15T09:59:34;100470.50;;;18.80;44.85
71344;BME280;59146;43.850;25.948;2023-04-15T10:02:01;100610.84;;;19.71;42.57
71344;BME280;59146;43.850;25.948;2023-04-15T10:04:28;100576.72;;;19.32;42.78
71344;BME280;59146;43.850;25.948;2023-04-15T10:06:55;100564.53;;;19.48;40.52
71344;BME280;59146;43.850;25.948;2023-04-15T10:09:21;100553.59;;;19.78;41.54
71344;BME280;59146;43.850;25.948;2023-04-15T10:11:47;100616.38;;;20.40;42.23
71344;BME280;59146;43.850;25.948;2023-04-15T10:14:14;100577.75;;;20.20;42.79
71344;BME280;59146;43.850;25.948;2023-04-15T10:16:40;100591.53;;;20.24;43.12
71344;BME280;59146;43.850;25.948;2023-04-15T10:19:10;100601.34;;;20.14;42.62
71344;BME280;59146;43.850;25.948;2023-04-15T10:21:36;100576.59;;;20.23;41.55
71344;BME280;59146;43.850;25.948;2023-04-15T10:24:02;100569.97;;;20.44;41.91
71344;BME280;59146;43.850;25.948;2023-04-15T10:26:28;100606.69;;;20.75;40.21
71344;BME280;59146;43.850;25.948;2023-04-15T10:28:54;100566.50;;;20.26;41.23
71344;BME280;59146;43.850;25.948;2023-04-15T10:31:20;100595.47;;;20.20;39.90
71344;BME280;59146;43.850;25.948;2023-04-15T10:33:46;100605.28;;;20.63;38.87
71344;BME280;59146;43.850;25.948;2023-04-15T10:36:12;100568.22;;;20.53;38.19
71344;BME280;59146;43.850;25.948;2023-04-15T10:38:41;100576.41;;;20.59;37.97
71344;BME280;59146;43.850;25.948;2023-04-15T10:43:58;100550.88;;;20.58;39.88
71344;BME280;59146;43.850;25.948;2023-04-15T10:46:38;100637.19;;;21.14;39.06
71344;BME280;59146;43.850;25.948;2023-04-15T10:49:14;100585.59;;;20.99;37.79
71344;BME280;59146;43.850;25.948;2023-04-15T10:51:46;100583.75;;;20.91;38.85
71344;BME280;59146;43.850;25.948;2023-04-15T10:54:15;100629.81;;;21.25;38.43
71344;BME280;59146;43.850;25.948;2023-04-15T10:56:44;100620.81;;;21.26;37.70
71344;BME280;59146;43.850;25.948;2023-04-15T10:59:10;100560.22;;;20.96;37.00
71344;BME280;59146;43.850;25.948;2023-04-15T11:01:59;100588.03;;;21.44;36.18
71344;BME280;59146;43.850;25.948;2023-04-15T11:04:54;100622.97;;;21.57;35.41
71344;BME280;59146;43.850;25.948;2023-04-15T11:07:39;100627.34;;;21.66;34.65
71344;BME280;59146;43.850;25.948;2023-04-15T11:12:48;100611.00;;;21.53;33.89
71344;BME280;59146;43.850;25.948;2023-04-15T11:15:27;100612.66;;;21.20;35.74
71344;BME280;59146;43.850;25.948;2023-04-15T11:17:56;100636.78;;;21.68;34.30
71344;BME280;59146;43.850;25.948;2023-04-15T11:20:22;100620.81;;;21.26;34.02
71344;BME280;59146;43.850;25.948;2023-04-15T11:22:50;100580.88;;;21.36;33.19
71344;BME280;59146;43.850;25.948;2023-04-15T11:25:29;100583.03;;;20.81;35.02
71344;BME280;59146;43.850;25.948;2023-04-15T11:27:55;100553.88;;;20.38;35.22
71344;BME280;59146;43.850;25.948;2023-04-15T11:30:23;100576.28;;;20.08;36.64
71344;BME280;59146;43.850;25.948;2023-04-15T11:32:53;100622.84;;;20.81;35.35
71344;BME280;59146;43.850;25.948;2023-04-15T11:35:19;100610.00;;;21.20;36.06
71344;BME280;59146;43.850;25.948;2023-04-15T11:37:45;100617.75;;;21.47;35.70
71344;BME280;59146;43.850;25.948;2023-04-15T11:40:11;100628.97;;;21.67;35.36
71344;BME280;59146;43.850;25.948;2023-04-15T11:42:37;100541.53;;;21.40;34.51
71344;BME280;59146;43.850;25.948;2023-04-15T11:45:11;100628.78;;;22.02;33.14
71344;BME280;59146;43.850;25.948;2023-04-15T11:47:37;100602.84;;;22.04;32.46
71344;BME280;59146;43.850;25.948;2023-04-15T11:50:32;100603.88;;;22.35;32.57
71344;BME280;59146;43.850;25.948;2023-04-15T11:53:00;100562.66;;;22.15;31.13
71344;BME280;59146;43.850;25.948;2023-04-15T11:55:27;100564.63;;;21.47;33.56
71344;BME280;59146;43.850;25.948;2023-04-15T11:58:15;100619.03;;;21.77;33.33
71344;BME280;59146;43.850;25.948;2023-04-15T12:00:49;100616.50;;;22.01;32.69
71344;BME280;59146;43.850;25.948;2023-04-15T12:03:25;100553.41;;;21.69;31.92
71344;BME280;59146;43.850;25.948;2023-04-15T12:09:00;100603.88;;;22.11;32.63
71344;BME280;59146;43.850;25.948;2023-04-15T12:13:53;100558.78;;;21.93;33.75
71344;BME280;59146;43.850;25.948;2023-04-15T12:16:20;100577.94;;;22.37;32.86
71344;BME280;59146;43.850;25.948;2023-04-15T12:18:56;100514.75;;;22.15;32.81
71344;BME280;59146;43.850;25.948;2023-04-15T12:21:23;100487.31;;;22.14;33.62
71344;BME280;59146;43.850;25.948;2023-04-15T12:23:50;100528.53;;;22.67;31.11
71344;BME280;59146;43.850;25.948;2023-04-15T12:26:16;100577.03;;;23.09;31.84
71344;BME280;59146;43.850;25.948;2023-04-15T12:28:42;100564.75;;;23.08;30.76
71344;BME280;59146;43.850;25.948;2023-04-15T12:31:09;100578.19;;;23.23;31.06
71344;BME280;59146;43.850;25.948;2023-04-15T12:33:35;100559.38;;;23.16;30.08
71344;BME280;59146;43.850;25.948;2023-04-15T12:36:00;100521.34;;;22.83;30.32
71344;BME280;59146;43.850;25.948;2023-04-15T12:38:26;100527.03;;;22.64;31.38
71344;BME280;59146;43.850;25.948;2023-04-15T12:40:51;100558.50;;;22.45;31.21
71344;BME280;59146;43.850;25.948;2023-04-15T12:43:17;100554.84;;;22.30;32.63
71344;BME280;59146;43.850;25.948;2023-04-15T12:45:42;100539.72;;;22.22;32.35
71344;BME280;59146;43.850;25.948;2023-04-15T12:48:07;100418.94;;;21.34;33.49
71344;BME280;59146;43.850;25.948;2023-04-15T12:50:34;100554.97;;;22.04;33.42